Time;durP1;ratioP1;P1;durP2;ratioP2;P2;SDS_P1;SDS_P2;PMS_P1;PMS_P2;Temp;Humidity;BMP_temperature;BMP_pressure;BME280_temperature;BME280_humidity;BME280_pressure;Samples;Min_cycle;Max_cycle;Signal;HPM_P1;HPM_P2
2022/12/14 00:03:27;;;;;;;25.48;21.90;;;;;;;;;;10073119;28;20051;-68
2022/12/14 00:08:21;;;;;;;23.30;20.85;;;;;;;;;;10073297;28;20046;-67
2022/12/14 00:13:16;;;;;;;27.05;20.35;;;;;;;;;;10072443;28;20073;-68
2022/12/14 00:18:10;;;;;;;24.38;20.77;;;;;;;;;;10072495;28;20108;-68
2022/12/14 00:23:04;;;;;;;23.80;19.60;;;;;;;;;;10071065;28;20049;-68
2022/12/14 00:27:58;;;;;;;23.13;20.13;;;;;;;;;;10072055;28;20426;-68
2022/12/14 00:32:52;;;;;;;23.63;19.38;;;;;;;;;;10068243;28;20049;-68
2022/12/14 00:37:45;;;;;;;23.10;20.55;;;;;;;;;;10071809;28;20053;-67
2022/12/14 00:42:40;;;;;;;22.70;19.42;;;;;;;;;;10070829;28;20053;-67
2022/12/14 00:47:34;;;;;;;28.00;20.58;;;;;;;;;;10071986;28;20049;-67
2022/12/14 00:52:32;;;;;;;25.10;19.40;;;;;;;;;;10070116;28;20045;-67
2022/12/14 00:57:28;;;;;;;23.42;19.58;;;;;;;;;;10070768;28;20049;-67
2022/12/14 01:02:21;;;;;;;22.60;18.63;;;;;;;;;;10070889;28;20049;-67
2022/12/14 01:07:15;;;;;;;21.30;18.58;;;;;;;;;;10071116;28;20111;-67
2022/12/14 01:12:09;;;;;;;24.08;19.42;;;;;;;;;;10069810;28;20057;-67
2022/12/14 01:17:03;;;;;;;20.60;18.20;;;;;;;;;;10070767;28;20046;-67
2022/12/14 01:21:57;;;;;;;20.75;18.20;;;;;;;;;;10070156;28;20111;-67
2022/12/14 01:26:50;;;;;;;21.55;17.73;;;;;;;;;;10069711;28;20064;-67
2022/12/14 01:31:43;;;;;;;24.15;18.75;;;;;;;;;;10069553;28;20104;-68
2022/12/14 01:36:40;;;;;;;32.05;24.00;;;;;;;;;;10069294;28;20554;-67
2022/12/14 01:41:59;;;;;;;61.67;36.75;;;;;;;;;;10068825;28;20084;-67
2022/12/14 01:47:04;;;;;;;30.33;24.77;;;;;;;;;;10069998;28;20049;-67
2022/12/14 01:52:13;;;;;;;27.38;18.60;;;;;;;;;;10068996;28;20529;-67
2022/12/14 01:57:07;;;;;;;19.05;16.90;;;;;;;;;;10068330;28;20042;-67
2022/12/14 02:02:03;;;;;;;21.65;16.85;;;;;;;;;;10068776;28;20077;-67
2022/12/14 02:06:55;;;;;;;21.30;18.10;;;;;;;;;;10066562;28;20136;-67
2022/12/14 02:12:03;;;;;;;18.52;16.45;;;;;;;;;;10067988;28;20063;-67
2022/12/14 02:16:56;;;;;;;21.00;17.65;;;;;;;;;;10066038;28;20138;-66
2022/12/14 02:22:01;;;;;;;19.70;16.48;;;;;;;;;;10067880;28;20057;-67
2022/12/14 02:27:09;;;;;;;18.35;16.42;;;;;;;;;;10054309;28;20111;-67
2022/12/14 02:32:22;;;;;;;21.45;17.38;;;;;;;;;;10055415;28;20053;-67
2022/12/14 02:37:39;;;;;;;21.60;16.48;;;;;;;;;;10067549;28;20053;-67
2022/12/14 02:42:51;;;;;;;18.42;15.63;;;;;;;;;;10067123;28;20060;-68
2022/12/14 02:48:23;;;;;;;18.92;16.38;;;;;;;;;;10067073;28;20057;-68
2022/12/14 02:53:16;;;;;;;23.40;16.75;;;;;;;;;;10052941;28;20053;-68
2022/12/14 02:58:23;;;;;;;18.27;15.77;;;;;;;;;;10067470;28;20087;-66
2022/12/14 03:03:16;;;;;;;19.15;16.13;;;;;;;;;;10075955;28;20080;-67
2022/12/14 03:08:14;;;;;;;21.88;16.60;;;;;;;;;;10066463;28;20058;-68
2022/12/14 03:13:34;;;;;;;17.25;15.45;;;;;;;;;;10066558;28;20136;-68
2022/12/14 03:18:50;;;;;;;21.08;15.40;;;;;;;;;;10070181;28;20506;-68
2022/12/14 03:23:47;;;;;;;20.25;17.10;;;;;;;;;;10072855;28;20104;-68
2022/12/14 03:28:54;;;;;;;20.98;16.63;;;;;;;;;;10074157;28;20062;-68
2022/12/14 03:33:50;;;;;;;20.20;17.50;;;;;;;;;;10074131;28;20125;-67
2022/12/14 03:38:47;;;;;;;19.40;16.27;;;;;;;;;;10074292;28;20060;-68
2022/12/14 03:43:52;;;;;;;17.30;15.45;;;;;;;;;;10073972;28;20136;-67
2022/12/14 03:48:55;;;;;;;19.05;15.30;;;;;;;;;;10072942;28;20501;-66
2022/12/14 03:53:57;;;;;;;20.17;15.02;;;;;;;;;;10073849;28;20409;-68
2022/12/14 03:59:09;;;;;;;18.85;13.90;;;;;;;;;;10073601;28;20052;-67
2022/12/14 04:04:10;;;;;;;18.27;14.52;;;;;;;;;;10074770;28;20045;-67
2022/12/14 04:09:20;;;;;;;19.15;15.50;;;;;;;;;;10063269;28;20046;-67
2022/12/14 04:19:36;;;;;;;18.40;16.40;;;;;;;;;;10071830;28;20108;-68
2022/12/14 04:30:39;;;;;;;19.92;15.73;;;;;;;;;;10026543;28;20111;-67
2022/12/14 04:35:38;;;;;;;17.00;14.57;;;;;;;;;;10062796;28;20057;-67
2022/12/14 04:40:58;;;;;;;19.57;17.47;;;;;;;;;;10073278;28;20049;-68
2022/12/14 04:45:55;;;;;;;19.27;14.77;;;;;;;;;;10070920;28;20052;-68
2022/12/14 04:50:58;;;;;;;20.58;14.90;;;;;;;;;;10061469;28;20053;-68
2022/12/14 04:56:31;;;;;;;22.25;17.38;;;;;;;;;;10071289;28;20045;-67
2022/12/14 05:02:16;;;;;;;24.30;15.77;;;;;;;;;;10068298;28;20061;-67
2022/12/14 05:07:15;;;;;;;21.38;16.48;;;;;;;;;;10064787;28;20074;-67
2022/12/14 05:12:24;;;;;;;17.52;15.00;;;;;;;;;;10070428;28;20077;-67
2022/12/14 05:17:37;;;;;;;21.00;15.93;;;;;;;;;;10068946;28;20132;-66
2022/12/14 05:23:10;;;;;;;19.58;16.20;;;;;;;;;;10069389;28;20049;-67
2022/12/14 05:28:23;;;;;;;18.40;15.63;;;;;;;;;;10070487;28;20057;-67
2022/12/14 05:33:19;;;;;;;18.02;16.13;;;;;;;;;;10060909;28;20473;-67
2022/12/14 05:38:12;;;;;;;20.33;17.02;;;;;;;;;;10069354;28;20453;-67
2022/12/14 05:43:08;;;;;;;24.65;17.90;;;;;;;;;;10068924;28;20053;-67
2022/12/14 05:48:01;;;;;;;21.23;18.92;;;;;;;;;;10069828;28;20538;-68
2022/12/14 05:52:55;;;;;;;21.08;18.77;;;;;;;;;;10068220;28;20049;-67
2022/12/14 05:57:48;;;;;;;23.08;18.67;;;;;;;;;;10069504;28;20053;-68
2022/12/14 06:02:41;;;;;;;22.98;18.63;;;;;;;;;;10055730;28;20049;-67
2022/12/14 06:07:35;;;;;;;26.85;19.00;;;;;;;;;;10076785;28;20052;-69
2022/12/14 06:12:29;;;;;;;26.90;22.63;;;;;;;;;;10082184;28;20045;-68
2022/12/14 06:17:23;;;;;;;22.63;17.98;;;;;;;;;;10088059;28;20111;-67
2022/12/14 06:22:17;;;;;;;24.02;18.38;;;;;;;;;;10082439;28;20063;-67
2022/12/14 06:27:10;;;;;;;22.65;20.23;;;;;;;;;;10079327;28;20046;-67
2022/12/14 06:32:04;;;;;;;25.27;21.05;;;;;;;;;;10080770;28;20103;-68
2022/12/14 06:36:59;;;;;;;20.13;17.90;;;;;;;;;;10085036;28;20424;-67
2022/12/14 06:41:52;;;;;;;23.83;18.52;;;;;;;;;;10067626;28;20054;-68
2022/12/14 06:46:45;;;;;;;28.92;23.15;;;;;;;;;;10075906;28;20124;-68
2022/12/14 06:51:39;;;;;;;24.45;21.38;;;;;;;;;;10078990;28;20111;-66
2022/12/14 06:56:32;;;;;;;25.75;19.88;;;;;;;;;;10079777;28;20057;-66
2022/12/14 07:01:25;;;;;;;31.67;21.73;;;;;;;;;;10079304;28;20121;-66
2022/12/14 07:06:18;;;;;;;24.33;18.95;;;;;;;;;;10072866;28;20498;-67
2022/12/14 07:11:13;;;;;;;27.15;20.58;;;;;;;;;;10066323;28;20410;-67
2022/12/14 07:16:09;;;;;;;28.92;22.40;;;;;;;;;;10062679;28;20160;-67
2022/12/14 07:21:08;;;;;;;32.00;22.42;;;;;;;;;;10064344;28;20056;-68
2022/12/14 07:26:21;;;;;;;;;;;;;;;;;;10065757;28;20544;-68
2022/12/14 07:31:17;;;;;;;27.75;18.83;;;;;;;;;;10065304;28;19925;-66
2022/12/14 07:36:14;;;;;;;27.80;18.95;;;;;;;;;;10065647;28;20469;-67
2022/12/14 07:41:15;;;;;;;35.53;20.85;;;;;;;;;;10065306;28;20490;-70
2022/12/14 07:46:17;;;;;;;26.95;21.40;;;;;;;;;;10064554;28;20152;-69
2022/12/14 07:51:14;;;;;;;26.98;20.88;;;;;;;;;;10065643;28;20445;-71
2022/12/14 07:56:10;;;;;;;50.97;21.48;;;;;;;;;;10064658;28;20474;-68
2022/12/14 08:01:18;;;;;;;26.88;18.85;;;;;;;;;;10063163;28;20140;-72
2022/12/14 08:06:12;;;;;;;31.45;21.00;;;;;;;;;;10068474;28;20045;-71
2022/12/14 08:11:06;;;;;;;29.58;20.40;;;;;;;;;;10069779;28;20064;-70
2022/12/14 08:16:07;;;;;;;27.15;18.45;;;;;;;;;;10071429;28;20053;-71
2022/12/14 08:21:01;;;;;;;27.70;17.13;;;;;;;;;;10072186;28;20107;-71
2022/12/14 08:25:55;;;;;;;29.83;19.58;;;;;;;;;;10070920;28;20072;-71
2022/12/14 08:30:49;;;;;;;31.90;20.92;;;;;;;;;;10071616;28;20133;-69
2022/12/14 08:35:43;;;;;;;25.67;16.98;;;;;;;;;;10071419;28;20064;-70
2022/12/14 08:40:38;;;;;;;22.85;17.70;;;;;;;;;;10071155;28;20041;-70
2022/12/14 08:45:31;;;;;;;20.42;15.90;;;;;;;;;;10070393;28;20049;-69
2022/12/14 08:50:25;;;;;;;23.48;17.38;;;;;;;;;;10070811;28;20137;-68
2022/12/14 08:55:20;;;;;;;20.90;16.88;;;;;;;;;;10069910;28;20148;-69
2022/12/14 09:00:20;;;;;;;22.33;16.33;;;;;;;;;;10066483;28;20050;-69
2022/12/14 09:05:14;;;;;;;25.58;16.85;;;;;;;;;;10069842;28;20534;-69
2022/12/14 09:10:09;;;;;;;18.83;14.30;;;;;;;;;;10070496;28;20088;-69
2022/12/14 09:15:04;;;;;;;21.35;17.02;;;;;;;;;;10068246;28;20042;-69
2022/12/14 09:19:58;;;;;;;21.48;17.05;;;;;;;;;;10069738;28;20487;-69
2022/12/14 09:24:52;;;;;;;25.05;17.15;;;;;;;;;;10068826;28;20453;-68
2022/12/14 09:29:44;;;;;;;24.98;18.70;;;;;;;;;;10069876;28;20084;-71
2022/12/14 09:34:38;;;;;;;18.45;16.38;;;;;;;;;;10069250;28;20060;-68
2022/12/14 09:39:32;;;;;;;22.55;16.65;;;;;;;;;;10066850;28;20045;-69
2022/12/14 09:44:49;;;;;;;20.98;16.73;;;;;;;;;;10069200;28;20379;-68
2022/12/14 09:49:50;;;;;;;19.88;15.98;;;;;;;;;;10067726;28;20046;-70
2022/12/14 09:54:44;;;;;;;24.20;18.23;;;;;;;;;;10066664;28;20083;-69
2022/12/14 09:59:42;;;;;;;22.80;17.52;;;;;;;;;;10068632;28;20049;-69
2022/12/14 10:04:44;;;;;;;17.85;15.55;;;;;;;;;;10067586;28;20084;-70
2022/12/14 10:10:23;;;;;;;20.65;16.13;;;;;;;;;;10078047;28;20049;-72
2022/12/14 10:15:28;;;;;;;22.02;17.85;;;;;;;;;;10072674;28;20049;-70
2022/12/14 10:20:27;;;;;;;40.60;31.48;;;;;;;;;;10074006;28;20084;-70
2022/12/14 10:25:24;;;;;;;22.98;17.88;;;;;;;;;;10084923;28;20656;-70
2022/12/14 10:30:57;;;;;;;38.92;28.08;;;;;;;;;;10077881;28;20114;-70
2022/12/14 10:35:53;;;;;;;29.95;21.33;;;;;;;;;;10077362;28;20073;-69
2022/12/14 10:40:50;;;;;;;22.00;18.52;;;;;;;;;;10086214;28;20042;-70
2022/12/14 10:46:11;;;;;;;26.75;20.30;;;;;;;;;;10074142;28;20051;-69
2022/12/14 10:51:19;;;;;;;30.08;23.40;;;;;;;;;;10077341;28;20481;-70
2022/12/14 10:56:55;;;;;;;19.88;16.55;;;;;;;;;;10071310;28;20045;-70
2022/12/14 11:01:58;;;;;;;19.00;15.90;;;;;;;;;;10065098;28;20045;-70
2022/12/14 11:07:11;;;;;;;23.40;16.75;;;;;;;;;;10090577;28;20081;-70
2022/12/14 11:12:12;;;;;;;28.17;21.52;;;;;;;;;;10079522;28;20068;-70
2022/12/14 11:17:35;;;;;;;30.42;21.10;;;;;;;;;;10074176;28;20041;-70
2022/12/14 11:22:56;;;;;;;17.90;15.68;;;;;;;;;;10063462;28;20076;-70
2022/12/14 11:27:49;;;;;;;17.40;14.85;;;;;;;;;;10054395;28;20085;-70
2022/12/14 11:32:45;;;;;;;18.33;15.23;;;;;;;;;;10063488;28;20054;-70
2022/12/14 11:37:39;;;;;;;25.73;17.02;;;;;;;;;;10063987;28;20049;-67
2022/12/14 11:42:39;;;;;;;22.73;17.48;;;;;;;;;;10081980;28;20444;-67
2022/12/14 11:47:32;;;;;;;19.23;13.88;;;;;;;;;;10072387;28;20061;-68
2022/12/14 11:52:35;;;;;;;18.67;14.32;;;;;;;;;;10072312;28;20061;-69
2022/12/14 11:57:38;;;;;;;20.55;15.02;;;;;;;;;;10059894;28;20046;-69
2022/12/14 12:02:36;;;;;;;19.85;14.30;;;;;;;;;;10071570;28;20069;-71
2022/12/14 12:07:35;;;;;;;17.35;14.95;;;;;;;;;;10070423;28;20045;-71
2022/12/14 12:12:30;;;;;;;21.38;15.35;;;;;;;;;;10071779;28;20053;-71
2022/12/14 12:17:44;;;;;;;16.95;14.70;;;;;;;;;;10071259;28;20049;-71
2022/12/14 12:22:57;;;;;;;15.60;12.93;;;;;;;;;;10060289;28;20069;-71
2022/12/14 12:27:59;;;;;;;15.55;12.55;;;;;;;;;;10069846;28;20053;-71
2022/12/14 12:33:11;;;;;;;14.10;12.18;;;;;;;;;;10067943;28;20124;-71
2022/12/14 12:38:33;;;;;;;16.13;13.13;;;;;;;;;;10070720;28;20406;-71
2022/12/14 12:43:28;;;;;;;17.05;11.55;;;;;;;;;;10070652;28;20077;-71
2022/12/14 12:48:37;;;;;;;13.18;11.15;;;;;;;;;;10070605;28;20057;-71
2022/12/14 12:53:37;;;;;;;14.03;11.17;;;;;;;;;;10065792;28;20466;-71
2022/12/14 12:58:30;;;;;;;;;;;;;;;;;;10069582;28;20073;-69
2022/12/14 13:03:51;;;;;;;16.17;10.40;;;;;;;;;;10068685;28;19921;-71
2022/12/14 13:08:44;;;;;;;14.77;12.20;;;;;;;;;;10068203;28;20041;-71
2022/12/14 13:14:19;;;;;;;15.10;12.52;;;;;;;;;;10068052;28;20080;-71
2022/12/14 13:19:11;;;;;;;;;;;;;;;;;;9993531;28;21087;-68
2022/12/14 13:24:25;;;;;;;15.27;11.18;;;;;;;;;;10067404;28;19928;-70
2022/12/14 13:29:28;;;;;;;10.73;9.23;;;;;;;;;;10069068;28;20569;-70
2022/12/14 13:34:38;;;;;;;11.07;9.88;;;;;;;;;;10067116;28;20091;-69
2022/12/14 13:40:00;;;;;;;13.13;10.27;;;;;;;;;;10068941;28;20049;-70
2022/12/14 13:45:01;;;;;;;15.02;10.25;;;;;;;;;;10065869;28;20107;-70
2022/12/14 13:50:16;;;;;;;13.02;10.02;;;;;;;;;;10067772;28;20063;-70
2022/12/14 13:55:35;;;;;;;13.23;11.82;;;;;;;;;;10067445;28;20037;-70
2022/12/14 14:00:47;;;;;;;;;;;;;;;;;;10068523;28;20427;-68
2022/12/14 14:05:44;;;;;;;16.50;11.93;;;;;;;;;;10067625;28;19925;-70
2022/12/14 14:10:41;;;;;;;14.98;12.32;;;;;;;;;;10067035;28;20060;-70
2022/12/14 14:15:50;;;;;;;13.43;11.07;;;;;;;;;;10067680;28;20475;-70
2022/12/14 14:21:11;;;;;;;15.35;11.95;;;;;;;;;;10066204;28;20103;-70
2022/12/14 14:26:27;;;;;;;16.17;11.50;;;;;;;;;;10066603;28;20053;-69
2022/12/14 14:31:20;;;;;;;19.13;11.90;;;;;;;;;;10066008;28;20059;-69
2022/12/14 14:36:24;;;;;;;17.55;12.93;;;;;;;;;;10066748;28;20055;-69
2022/12/14 14:41:27;;;;;;;15.35;13.05;;;;;;;;;;10066351;28;20140;-70
2022/12/14 14:46:36;;;;;;;19.60;13.10;;;;;;;;;;10066674;28;20050;-70
2022/12/14 14:51:33;;;;;;;18.63;11.67;;;;;;;;;;10062447;28;20053;-70
2022/12/14 14:56:29;;;;;;;15.18;11.18;;;;;;;;;;10065190;28;20049;-70
2022/12/14 15:01:27;;;;;;;15.05;10.93;;;;;;;;;;10065065;28;20049;-69
2022/12/14 15:06:28;;;;;;;15.60;12.20;;;;;;;;;;10065278;28;20073;-70
2022/12/14 15:11:24;;;;;;;16.30;12.88;;;;;;;;;;10066037;28;20045;-68
2022/12/14 15:16:21;;;;;;;17.52;12.63;;;;;;;;;;10072917;28;20051;-70
2022/12/14 15:21:15;;;;;;;127.15;79.88;;;;;;;;;;10074575;28;20049;-70
2022/12/14 15:26:12;;;;;;;16.85;13.27;;;;;;;;;;10074020;28;20052;-71
2022/12/14 15:31:09;;;;;;;15.57;13.18;;;;;;;;;;10072124;28;20057;-71
2022/12/14 15:36:15;;;;;;;21.02;15.45;;;;;;;;;;10072825;28;20049;-70
2022/12/14 15:41:15;;;;;;;16.85;11.90;;;;;;;;;;10073228;28;20049;-69
2022/12/14 15:46:16;;;;;;;14.45;11.00;;;;;;;;;;10072891;28;20061;-70
2022/12/14 15:51:17;;;;;;;16.52;14.32;;;;;;;;;;10071630;28;20049;-71
2022/12/14 15:56:36;;;;;;;24.73;14.85;;;;;;;;;;10071923;28;20369;-70
2022/12/14 16:02:02;;;;;;;15.73;13.23;;;;;;;;;;10071550;28;20053;-70
2022/12/14 16:07:06;;;;;;;21.80;14.30;;;;;;;;;;10071583;28;20099;-69
2022/12/14 16:12:06;;;;;;;17.17;14.55;;;;;;;;;;10071239;28;20128;-69
2022/12/14 16:17:00;;;;;;;19.83;16.52;;;;;;;;;;10071456;28;20049;-69
2022/12/14 16:22:04;;;;;;;19.58;15.13;;;;;;;;;;10070314;28;20140;-70
2022/12/14 16:26:59;;;;;;;16.83;12.48;;;;;;;;;;10071327;28;20057;-67
2022/12/14 16:32:04;;;;;;;20.17;14.60;;;;;;;;;;10071365;28;20136;-69
2022/12/14 16:36:59;;;;;;;15.05;13.43;;;;;;;;;;10069343;28;20136;-69
2022/12/14 16:42:38;;;;;;;14.70;11.73;;;;;;;;;;10069203;28;20481;-70
2022/12/14 16:47:34;;;;;;;20.55;14.18;;;;;;;;;;10075029;28;20045;-67
2022/12/14 16:52:33;;;;;;;18.73;13.15;;;;;;;;;;10070094;28;20494;-71
2022/12/14 16:57:27;;;;;;;15.23;12.25;;;;;;;;;;10066421;28;20489;-67
2022/12/14 17:02:25;;;;;;;22.55;17.80;;;;;;;;;;10069610;28;20057;-71
2022/12/14 17:07:22;;;;;;;25.10;21.43;;;;;;;;;;10070008;28;20128;-70
2022/12/14 17:12:17;;;;;;;22.75;16.98;;;;;;;;;;10068806;28;20056;-70
2022/12/14 17:17:16;;;;;;;18.88;14.63;;;;;;;;;;10069943;28;20115;-70
2022/12/14 17:22:16;;;;;;;22.75;19.25;;;;;;;;;;10069503;28;20053;-69
2022/12/14 17:27:14;;;;;;;28.83;20.33;;;;;;;;;;10057977;28;20057;-69
2022/12/14 17:32:10;;;;;;;39.63;28.45;;;;;;;;;;10068450;28;20045;-70
2022/12/14 17:37:12;;;;;;;31.00;22.50;;;;;;;;;;10067450;28;20132;-71
2022/12/14 17:42:05;;;;;;;28.48;19.42;;;;;;;;;;10067636;28;20494;-72
2022/12/14 17:46:58;;;;;;;25.42;18.13;;;;;;;;;;10067771;28;20176;-71
2022/12/14 17:51:53;;;;;;;24.58;17.33;;;;;;;;;;10067557;28;20050;-71
2022/12/14 17:56:47;;;;;;;22.52;17.52;;;;;;;;;;10067484;28;20080;-69
2022/12/14 18:01:39;;;;;;;29.35;17.05;;;;;;;;;;10065634;28;20492;-69
2022/12/14 18:06:33;;;;;;;23.83;18.77;;;;;;;;;;10061453;28;20038;-69
2022/12/14 18:11:26;;;;;;;21.85;17.75;;;;;;;;;;10067813;28;20077;-70
2022/12/14 18:16:21;;;;;;;26.83;22.83;;;;;;;;;;10067642;28;20048;-69
2022/12/14 18:21:19;;;;;;;26.77;21.42;;;;;;;;;;10067629;28;20046;-69
2022/12/14 18:26:18;;;;;;;18.67;16.63;;;;;;;;;;10067332;28;20084;-70
2022/12/14 18:31:33;;;;;;;20.98;18.35;;;;;;;;;;10067585;28;20061;-70
2022/12/14 18:36:26;;;;;;;20.40;16.17;;;;;;;;;;10066121;28;20048;-69
2022/12/14 18:41:22;;;;;;;26.75;19.25;;;;;;;;;;10055778;28;20128;-69
2022/12/14 18:46:19;;;;;;;25.17;18.38;;;;;;;;;;10064721;28;20053;-68
2022/12/14 18:51:15;;;;;;;22.13;19.05;;;;;;;;;;10064020;28;20056;-68
2022/12/14 18:56:10;;;;;;;25.35;18.58;;;;;;;;;;10061685;28;20049;-69
2022/12/14 19:01:04;;;;;;;42.97;29.52;;;;;;;;;;10064828;28;20057;-67
2022/12/14 19:06:06;;;;;;;38.63;23.92;;;;;;;;;;10067105;28;20388;-69
2022/12/14 19:11:31;;;;;;;26.65;19.05;;;;;;;;;;10066672;28;20136;-69
2022/12/14 19:16:24;;;;;;;75.88;46.30;;;;;;;;;;10065597;28;20072;-69
2022/12/14 19:21:18;;;;;;;106.20;53.75;;;;;;;;;;10066892;28;20045;-69
2022/12/14 19:26:11;;;;;;;142.95;75.80;;;;;;;;;;10065900;28;20050;-69
2022/12/14 19:31:04;;;;;;;30.42;22.67;;;;;;;;;;10067457;28;20124;-69
2022/12/14 19:35:57;;;;;;;38.47;24.50;;;;;;;;;;10066248;28;20537;-70
2022/12/14 19:41:02;;;;;;;33.05;23.50;;;;;;;;;;10065449;28;20069;-69
2022/12/14 19:45:56;;;;;;;28.27;20.85;;;;;;;;;;10065659;28;20125;-70
2022/12/14 19:50:49;;;;;;;25.90;18.55;;;;;;;;;;10064850;28;20144;-70
2022/12/14 19:55:51;;;;;;;96.35;62.72;;;;;;;;;;10062253;28;20065;-69
2022/12/14 20:00:45;;;;;;;55.63;40.30;;;;;;;;;;10071016;28;20486;-69
2022/12/14 20:05:37;;;;;;;26.92;20.25;;;;;;;;;;10071904;28;20082;-69
2022/12/14 20:10:31;;;;;;;23.48;18.08;;;;;;;;;;10072750;28;20088;-69
2022/12/14 20:15:25;;;;;;;39.90;30.75;;;;;;;;;;10071852;28;20045;-69
2022/12/14 20:20:18;;;;;;;31.00;24.17;;;;;;;;;;10071391;28;20133;-69
2022/12/14 20:25:18;;;;;;;35.28;27.33;;;;;;;;;;10072284;28;20120;-69
2022/12/14 20:30:12;;;;;;;25.25;20.52;;;;;;;;;;10060039;28;20089;-68
2022/12/14 20:35:10;;;;;;;23.27;19.08;;;;;;;;;;10072147;28;20037;-69
2022/12/14 20:40:07;;;;;;;29.98;21.15;;;;;;;;;;10070852;28;20054;-70
2022/12/14 20:45:00;;;;;;;20.45;18.20;;;;;;;;;;10064937;28;20052;-70
2022/12/14 20:49:58;;;;;;;25.60;21.75;;;;;;;;;;10069047;28;20061;-69
2022/12/14 20:54:52;;;;;;;30.77;23.63;;;;;;;;;;10069136;28;20053;-70
2022/12/14 20:59:45;;;;;;;25.88;21.10;;;;;;;;;;10070477;28;20049;-70
2022/12/14 21:04:40;;;;;;;26.73;21.60;;;;;;;;;;10069462;28;20042;-71
2022/12/14 21:09:33;;;;;;;43.25;31.13;;;;;;;;;;10069984;28;20061;-71
2022/12/14 21:14:28;;;;;;;127.63;77.10;;;;;;;;;;10069092;28;20053;-72
2022/12/14 21:19:21;;;;;;;34.50;24.10;;;;;;;;;;10067009;28;20145;-73
2022/12/14 21:24:14;;;;;;;28.60;22.42;;;;;;;;;;10068254;28;20053;-72
2022/12/14 21:29:27;;;;;;;27.08;21.05;;;;;;;;;;10076071;28;20072;-73
2022/12/14 21:34:21;;;;;;;29.13;22.27;;;;;;;;;;10067827;28;20053;-75
2022/12/14 21:39:16;;;;;;;25.30;21.88;;;;;;;;;;10066407;28;20051;-73
2022/12/14 21:44:09;;;;;;;28.17;22.75;;;;;;;;;;10069650;28;20060;-75
2022/12/14 21:49:05;;;;;;;25.73;21.27;;;;;;;;;;10084695;28;20049;-75
2022/12/14 21:53:58;;;;;;;29.40;23.38;;;;;;;;;;10079595;28;20072;-75
2022/12/14 21:58:51;;;;;;;27.88;23.17;;;;;;;;;;10075485;28;20090;-74
2022/12/14 22:03:46;;;;;;;26.95;19.70;;;;;;;;;;10064645;28;20050;-74
2022/12/14 22:08:41;;;;;;;30.85;21.65;;;;;;;;;;10087155;28;20045;-74
2022/12/14 22:13:34;;;;;;;32.92;21.50;;;;;;;;;;10087276;28;20418;-75
2022/12/14 22:18:27;;;;;;;30.10;21.63;;;;;;;;;;10079222;28;20041;-73
2022/12/14 22:23:21;;;;;;;30.90;22.17;;;;;;;;;;10091026;28;20073;-74
2022/12/14 22:28:15;;;;;;;26.02;20.95;;;;;;;;;;10081694;28;20053;-75
2022/12/14 22:33:09;;;;;;;25.88;21.42;;;;;;;;;;10078585;28;20065;-75
2022/12/14 22:38:02;;;;;;;29.27;23.50;;;;;;;;;;10085474;28;20057;-75
2022/12/14 22:42:56;;;;;;;28.05;21.30;;;;;;;;;;10084529;28;20134;-74
2022/12/14 22:47:49;;;;;;;25.35;21.38;;;;;;;;;;10076758;28;20054;-74
2022/12/14 22:52:42;;;;;;;24.40;20.95;;;;;;;;;;10080831;28;20462;-74
2022/12/14 22:57:43;;;;;;;25.65;20.65;;;;;;;;;;10085594;28;20045;-74
2022/12/14 23:02:37;;;;;;;25.40;20.38;;;;;;;;;;10086284;28;20127;-74
2022/12/14 23:07:31;;;;;;;23.38;18.88;;;;;;;;;;10077356;28;20044;-74
